Archiv-/Tagesdaten

--Timestamp---	Temp	Chill	HIndex	Humid	Dewpt	 Wind 	HiWind	WindDir	Rain 	Barom	Solar	 ET  	 UV 
--------------	----	-----	------	-----	-----	------	------	-------	-----	-----	-----	-----	----
20110602 00:00	11.4	11.4	11.4	94	10.5	3	8	22	0.0	1025.0	0	0.000	0.0
20110602 00:05	11.4	11.4	11.4	94	10.5	2	6	22	0.0	1025.0	0	0.000	0.0
20110602 00:10	11.4	11.4	11.4	94	10.5	2	6	22	0.0	1025.0	0	0.000	0.0
20110602 00:15	11.3	11.3	11.3	94	10.4	5	10	22	0.0	1025.2	0	0.000	0.0
20110602 00:20	11.3	11.3	11.3	94	10.3	8	14	22	0.0	1025.3	0	0.000	0.0
20110602 00:25	11.2	11.2	11.2	94	10.3	6	11	22	0.0	1025.2	0	0.000	0.0
20110602 00:30	11.3	11.3	11.3	94	10.3	3	8	22	0.0	1025.1	0	0.000	0.0
20110602 00:35	11.3	11.3	11.3	94	10.3	5	10	22	0.0	1025.2	0	0.000	0.0
20110602 00:40	11.3	11.3	11.3	94	10.3	3	8	22	0.0	1025.1	0	0.000	0.0
20110602 00:45	11.2	11.2	11.2	94	10.3	6	14	22	0.0	1025.2	0	0.000	0.0
20110602 00:50	11.2	11.2	11.2	94	10.2	6	16	22	0.0	1025.2	0	0.000	0.0
20110602 00:55	11.2	11.2	11.2	94	10.2	5	11	22	0.0	1025.2	0	0.000	0.0
20110602 01:00	11.2	11.2	11.2	94	10.3	6	16	22	0.0	1025.2	0	0.000	0.0
20110602 01:05	11.2	11.2	11.2	94	10.2	8	11	22	0.0	1025.1	0	0.000	0.0
20110602 01:10	11.1	11.1	11.1	94	10.2	6	14	22	0.0	1025.0	0	0.000	0.0
20110602 01:15	11.2	11.2	11.2	94	10.2	2	10	22	0.0	1025.0	0	0.000	0.0
20110602 01:20	11.2	11.2	11.2	94	10.2	3	10	45	0.0	1025.0	0	0.000	0.0
20110602 01:25	11.1	11.1	11.1	94	10.1	3	10	22	0.0	1024.8	0	0.000	0.0
20110602 01:30	11.0	11.0	11.0	94	10.1	6	11	22	0.2	1024.9	0	0.000	0.0
20110602 01:35	10.9	10.9	10.9	94	10.0	6	11	45	0.0	1025.0	0	0.000	0.0
20110602 01:40	10.9	10.9	10.9	94	10.0	6	10	45	0.0	1025.0	0	0.000	0.0
20110602 01:45	10.9	10.9	10.9	94	10.0	5	10	45	0.0	1025.0	0	0.000	0.0
20110602 01:50	10.9	10.9	10.9	94	10.0	3	8	45	0.0	1024.9	0	0.000	0.0
20110602 01:55	10.9	10.9	10.9	94	10.0	0	5	45	0.0	1024.8	0	0.000	0.0
20110602 02:00	10.9	10.9	10.9	94	10.0	2	10	45	0.0	1024.8	0	0.000	0.0
20110602 02:05	10.9	10.9	10.9	94	10.0	5	8	22	0.0	1024.8	0	0.000	0.0
20110602 02:10	10.9	10.9	10.9	94	10.0	3	8	22	0.0	1024.9	0	0.000	0.0
20110602 02:15	10.9	10.9	10.9	94	10.0	3	6	22	0.0	1024.9	0	0.000	0.0
20110602 02:20	10.9	10.9	10.9	94	10.0	6	10	22	0.0	1024.9	0	0.000	0.0
20110602 02:25	10.9	10.9	10.9	94	10.0	5	8	22	0.0	1024.8	0	0.000	0.0
20110602 02:30	10.9	10.9	10.9	94	10.0	3	8	22	0.0	1024.8	0	0.000	0.0
20110602 02:35	10.9	10.9	10.9	94	10.0	2	8	22	0.0	1024.7	0	0.000	0.0
20110602 02:40	10.9	10.9	10.9	94	10.0	0	2	22	0.0	1024.7	0	0.000	0.0
20110602 02:45	11.0	11.0	11.0	94	10.1	0	0	-100000	0.0	1024.7	0	0.000	0.0
20110602 02:50	11.0	11.0	11.0	94	10.1	0	3	22	0.0	1024.7	0	0.000	0.0
20110602 02:55	11.0	11.0	11.0	94	10.1	0	5	22	0.0	1024.8	0	0.000	0.0
20110602 03:00	10.9	10.9	10.9	94	10.0	0	6	22	0.0	1024.9	0	0.000	0.0
20110602 03:05	10.9	10.9	10.9	94	10.0	3	10	22	0.0	1024.9	0	0.000	0.0
20110602 03:10	10.8	10.8	10.8	94	9.9	5	8	22	0.0	1024.9	0	0.000	0.0
20110602 03:15	10.8	10.8	10.8	94	9.9	5	11	22	0.0	1024.9	0	0.000	0.0
20110602 03:20	10.8	10.8	10.8	94	9.9	3	10	22	0.0	1024.9	0	0.000	0.0
20110602 03:25	10.8	10.8	10.8	94	9.9	5	10	22	0.0	1025.0	0	0.000	0.0
20110602 03:30	10.8	10.8	10.8	94	9.9	5	10	22	0.0	1024.9	0	0.000	0.0
20110602 03:35	10.8	10.8	10.8	94	9.9	5	11	22	0.0	1024.9	0	0.000	0.0
20110602 03:40	10.7	10.7	10.7	94	9.8	6	11	22	0.0	1024.9	0	0.000	0.0
20110602 03:45	10.7	10.7	10.7	94	9.7	8	18	22	0.0	1024.9	0	0.000	0.0
20110602 03:50	10.7	10.7	10.7	94	9.7	6	11	45	0.0	1024.9	0	0.000	0.0
20110602 03:55	10.7	10.7	10.7	94	9.7	5	11	45	0.0	1024.9	0	0.000	0.0
20110602 04:00	10.6	10.6	10.6	94	9.7	8	11	45	0.0	1024.9	0	0.000	0.0
20110602 04:05	10.6	10.6	10.6	94	9.7	6	10	45	0.0	1025.0	0	0.000	0.0
20110602 04:10	10.6	10.6	10.6	94	9.7	5	10	45	0.0	1025.0	0	0.000	0.0
20110602 04:15	10.6	10.6	10.6	94	9.7	6	10	45	0.0	1025.0	0	0.000	0.0
20110602 04:20	10.7	10.7	10.7	94	9.7	6	11	45	0.0	1025.0	0	0.000	0.0
20110602 04:25	10.6	10.6	10.6	94	9.7	8	11	45	0.0	1025.0	0	0.000	0.0
20110602 04:30	10.6	10.6	10.6	94	9.7	8	11	22	0.0	1025.0	0	0.000	0.0
20110602 04:35	10.6	10.6	10.6	94	9.7	3	8	22	0.0	1025.0	0	0.000	0.0
20110602 04:40	10.6	10.6	10.6	94	9.6	6	11	22	0.0	1025.0	0	0.000	0.0
20110602 04:45	10.6	10.6	10.6	94	9.6	6	11	22	0.0	1025.0	0	0.000	0.0
20110602 04:50	10.6	10.6	10.6	94	9.6	5	10	45	0.0	1025.0	0	0.000	0.0
20110602 04:55	10.6	10.6	10.6	94	9.6	5	6	22	0.0	1025.0	0	0.000	0.0
20110602 05:00	10.6	10.6	10.6	94	9.6	3	6	45	0.0	1025.1	0	0.000	0.0
20110602 05:05	10.6	10.6	10.6	94	9.6	2	5	45	0.0	1025.0	0	0.000	0.0
20110602 05:10	10.6	10.6	10.6	94	9.6	3	5	45	0.0	1025.1	0	0.000	0.0
20110602 05:15	10.6	10.6	10.6	94	9.6	3	8	45	0.0	1025.1	0	0.000	0.0
20110602 05:20	10.6	10.6	10.6	94	9.7	2	6	45	0.0	1025.1	0	0.000	0.0
20110602 05:25	10.6	10.6	10.6	94	9.7	3	8	45	0.0	1025.0	0	0.000	0.0
20110602 05:30	10.7	10.7	10.7	94	9.7	3	6	45	0.0	1025.1	0	0.000	0.0
20110602 05:35	10.6	10.6	10.6	94	9.7	3	8	45	0.0	1025.1	0	0.000	0.0
20110602 05:40	10.6	10.6	10.6	94	9.7	6	10	22	0.0	1025.2	0	0.000	0.0
20110602 05:45	10.6	10.6	10.6	94	9.7	5	6	22	0.0	1025.2	0	0.000	0.0
20110602 05:50	10.6	10.6	10.6	94	9.7	6	13	22	0.0	1025.2	0	0.000	0.0
20110602 05:55	10.6	10.6	10.6	94	9.6	6	11	22	0.0	1025.2	0	0.000	0.0
20110602 06:00	10.6	10.6	10.6	94	9.6	6	10	45	0.0	1025.3	4	0.000	0.0
20110602 06:05	10.6	10.6	10.6	94	9.6	5	8	45	0.0	1025.4	7	0.000	0.0
20110602 06:10	10.5	10.5	10.5	94	9.6	6	10	45	0.0	1025.4	10	0.000	0.0
20110602 06:15	10.5	10.5	10.5	94	9.6	5	8	45	0.0	1025.4	14	0.000	0.0
20110602 06:20	10.4	10.4	10.4	94	9.5	6	10	45	0.0	1025.3	25	0.000	0.0
20110602 06:25	10.4	10.4	10.4	94	9.5	6	10	45	0.0	1025.3	26	0.000	0.0
20110602 06:30	10.5	10.5	10.5	94	9.6	2	6	45	0.0	1025.5	25	0.000	0.0
20110602 06:35	10.5	10.5	10.5	94	9.6	5	10	45	0.0	1025.4	33	0.000	0.0
20110602 06:40	10.5	10.5	10.5	94	9.6	3	10	45	0.0	1025.5	32	0.000	0.0
20110602 06:45	10.6	10.6	10.6	94	9.6	5	10	45	0.0	1025.5	33	0.000	0.0
20110602 06:50	10.5	10.5	10.5	94	9.6	5	11	68	0.0	1025.5	28	0.000	0.0
20110602 06:55	10.5	10.5	10.5	94	9.6	5	10	22	0.0	1025.6	16	0.000	0.0
20110602 07:00	10.5	10.5	10.5	94	9.6	6	10	45	0.0	1025.7	13	0.025	0.0
20110602 07:05	10.5	10.5	10.5	94	9.6	5	10	45	0.0	1025.9	18	0.000	0.0
20110602 07:10	10.5	10.5	10.5	94	9.6	3	6	45	0.0	1025.9	30	0.000	0.0
20110602 07:15	10.6	10.6	10.6	93	9.5	3	6	45	0.0	1026.0	39	0.000	0.0
20110602 07:20	10.6	10.6	10.6	93	9.5	3	8	45	0.0	1025.9	38	0.000	0.0
20110602 07:25	10.7	10.7	10.7	93	9.6	5	6	45	0.0	1025.9	64	0.000	0.0
20110602 07:30	10.7	10.7	10.7	93	9.6	5	8	45	0.0	1025.8	111	0.000	0.3
20110602 07:35	10.8	10.8	10.8	94	9.9	3	6	0	0.0	1025.8	92	0.000	0.3
20110602 07:40	10.8	10.8	10.8	93	9.7	6	10	22	0.0	1025.7	84	0.000	0.0
20110602 07:45	10.8	10.8	10.8	93	9.7	3	6	22	0.0	1025.8	84	0.000	0.2
20110602 07:50	10.9	10.9	10.9	93	9.9	5	10	22	0.0	1025.9	97	0.000	0.5
20110602 07:55	10.9	10.9	10.9	93	9.9	8	13	45	0.0	1026.0	85	0.000	0.3
20110602 08:00	11.0	11.0	11.0	93	9.9	6	14	22	0.0	1026.1	66	0.025	0.0
20110602 08:05	10.9	10.9	10.9	93	9.9	10	16	45	0.0	1026.1	66	0.000	0.2
20110602 08:10	10.9	10.9	10.9	92	9.7	6	13	45	0.0	1026.1	71	0.000	0.5
20110602 08:15	11.1	11.1	11.1	93	10.0	2	6	0	0.0	1026.1	58	0.000	0.3
20110602 08:20	11.1	11.1	11.1	93	10.0	5	8	45	0.0	1026.2	61	0.000	0.0
20110602 08:25	11.1	11.1	11.1	92	9.8	5	11	22	0.0	1026.2	82	0.000	0.6
20110602 08:30	11.2	11.2	11.2	92	9.9	2	5	22	0.0	1026.3	94	0.000	0.6
20110602 08:35	11.2	11.2	11.2	92	9.9	3	8	68	0.0	1026.3	72	0.000	0.5
20110602 08:40	11.2	11.2	11.2	92	10.0	6	10	45	0.0	1026.4	97	0.000	0.7
20110602 08:45	11.3	11.3	11.3	92	10.0	5	8	68	0.0	1026.5	80	0.000	0.7
20110602 08:50	11.3	11.3	11.3	92	10.0	5	10	68	0.0	1026.5	69	0.000	0.6
20110602 08:55	11.3	11.3	11.3	92	10.0	5	10	45	0.0	1026.5	74	0.000	0.6
20110602 09:00	11.3	11.3	11.3	92	10.0	3	8	68	0.0	1026.6	76	0.051	0.6
20110602 09:05	11.3	11.3	11.3	92	10.0	2	5	68	0.0	1026.6	74	0.000	0.6
20110602 09:10	11.3	11.3	11.3	92	10.1	3	8	68	0.0	1026.7	76	0.000	0.7
20110602 09:15	11.4	11.4	11.4	91	10.0	2	5	68	0.0	1026.7	75	0.000	0.7
20110602 09:20	11.4	11.4	11.4	91	10.0	3	6	68	0.0	1026.8	91	0.000	0.9
20110602 09:25	11.5	11.5	11.5	91	10.1	5	8	68	0.0	1026.8	98	0.000	0.9
20110602 09:30	11.6	11.6	11.6	92	10.3	3	6	45	0.0	1026.9	77	0.000	0.8
20110602 09:35	11.7	11.7	11.7	92	10.4	3	8	45	0.0	1026.9	73	0.000	0.7
20110602 09:40	11.7	11.7	11.7	91	10.2	3	10	45	0.0	1026.9	69	0.000	0.7
20110602 09:45	11.6	11.6	11.6	91	10.2	5	10	45	0.0	1026.8	73	0.000	0.7
20110602 09:50	11.7	11.7	11.7	91	10.2	3	8	68	0.0	1026.9	68	0.000	0.7
20110602 09:55	11.6	11.6	11.6	91	10.2	6	11	45	0.0	1026.9	69	0.000	0.7
20110602 10:00	11.6	11.6	11.6	91	10.2	6	11	45	0.0	1027.0	62	0.051	0.6
20110602 10:05	11.6	11.6	11.6	91	10.2	5	8	45	0.0	1027.0	56	0.000	0.4
20110602 10:10	11.6	11.6	11.6	91	10.2	5	8	45	0.0	1027.0	41	0.000	0.0
20110602 10:15	11.7	11.7	11.7	91	10.2	3	8	45	0.0	1027.0	48	0.000	0.0
20110602 10:20	11.7	11.7	11.7	91	10.2	5	8	45	0.0	1027.0	53	0.000	0.2
20110602 10:25	11.7	11.7	11.7	91	10.2	6	8	45	0.0	1027.1	61	0.000	0.7
20110602 10:30	11.7	11.7	11.7	92	10.4	5	8	45	0.0	1027.0	675	0.000	0.1
20110602 10:35	11.7	11.7	11.7	92	10.4	5	8	45	0.0	1027.1	59	0.000	0.6
20110602 10:40	11.7	11.7	11.7	92	10.4	3	6	45	0.0	1027.1	46	0.000	0.0
20110602 10:45	11.6	11.6	11.6	92	10.4	6	8	45	0.0	1027.1	45	0.000	0.0
20110602 10:50	11.6	11.6	11.6	92	10.4	2	5	22	0.0	1027.0	63	0.000	0.6
20110602 10:55	11.7	11.7	11.7	92	10.4	2	5	45	0.2	1027.0	73	0.000	0.8
20110602 11:00	11.7	11.7	11.7	93	10.6	5	8	22	0.0	1027.1	98	0.025	1.1
20110602 11:05	11.8	11.8	11.8	93	10.7	0	6	22	0.0	1027.0	137	0.000	1.5
20110602 11:10	11.8	11.8	11.8	93	10.7	2	6	90	0.0	1027.0	120	0.000	1.3
20110602 11:15	11.9	11.9	11.9	93	10.8	2	5	90	0.0	1026.9	164	0.000	1.8
20110602 11:20	12.1	12.1	12.1	93	11.0	3	6	90	0.0	1026.9	216	0.000	2.3
20110602 11:25	12.2	12.2	12.2	93	11.1	2	6	90	0.0	1026.8	306	0.000	3.4
20110602 11:30	12.3	12.3	12.3	92	11.1	5	8	90	0.0	1026.8	314	0.000	4.0
20110602 11:35	12.7	12.7	12.7	92	11.4	3	8	90	0.0	1026.7	366	0.000	4.6
20110602 11:40	12.9	12.9	12.9	92	11.7	3	8	90	0.0	1026.8	618	0.000	6.3
20110602 11:45	13.4	13.4	13.4	91	11.9	5	11	45	0.0	1026.8	832	0.000	7.3
20110602 11:50	13.8	13.8	13.8	90	12.2	10	14	45	0.0	1026.8	328	0.000	3.6
20110602 11:55	13.8	13.8	13.8	88	11.8	8	16	45	0.0	1026.9	249	0.000	2.7
20110602 12:00	13.8	13.8	13.8	88	11.8	8	19	68	0.0	1026.8	259	0.178	2.8
20110602 12:05	13.8	13.8	13.8	88	11.9	8	14	45	0.0	1027.0	244	0.000	2.6
20110602 12:10	13.8	13.8	13.8	88	11.9	6	11	68	0.0	1027.0	292	0.000	3.0
20110602 12:15	13.9	13.9	13.9	87	11.8	6	14	68	0.0	1026.9	219	0.000	2.4
20110602 12:20	13.9	13.9	13.9	87	11.8	8	19	45	0.0	1026.9	107	0.000	1.2
20110602 12:25	13.9	13.9	13.9	87	11.8	6	14	45	0.0	1026.9	84	0.000	1.0
20110602 12:30	13.7	13.7	13.7	88	11.8	8	13	22	0.0	1026.9	79	0.000	1.0
20110602 12:35	13.7	13.7	13.7	88	11.7	10	18	45	0.0	1026.9	137	0.000	1.8
20110602 12:40	13.7	13.7	13.7	87	11.6	8	14	68	0.0	1026.9	226	0.000	2.8
20110602 12:45	13.9	13.9	13.9	87	11.8	8	16	68	0.0	1026.8	283	0.000	3.4
20110602 12:50	14.1	14.1	14.1	86	11.8	8	16	68	0.0	1026.8	255	0.000	3.0
20110602 12:55	14.2	14.2	14.2	85	11.7	10	16	68	0.0	1026.8	228	0.000	2.8
20110602 13:00	14.1	14.1	14.1	84	11.4	10	19	68	0.0	1026.8	227	0.102	2.8
20110602 13:10	14.2	14.2	14.2	84	11.5	6	13	90	0.0	1026.7	257	0.000	3.1
20110602 13:15	14.2	14.2	14.2	84	11.6	8	14	90	0.0	1026.7	237	0.000	2.8
20110602 13:20	14.3	14.3	14.3	85	11.8	6	10	90	0.0	1026.8	200	0.000	2.4
20110602 13:25	14.4	14.4	14.4	85	11.9	5	8	90	0.0	1026.8	310	0.000	3.8
20110602 13:30	14.5	14.5	14.5	84	11.8	5	8	90	0.0	1026.8	267	0.000	3.2
20110602 13:35	14.6	14.6	14.6	84	11.9	3	8	90	0.0	1026.8	204	0.000	2.6
20110602 13:40	14.7	14.7	14.7	84	12.0	6	14	68	0.0	1026.7	170	0.000	2.1
20110602 13:45	14.6	14.6	14.6	84	11.9	8	14	68	0.0	1026.7	151	0.000	2.1
20110602 13:50	14.5	14.5	14.5	84	11.8	6	10	68	0.0	1026.7	171	0.000	2.4



Please note the license to use and transfer of this data:
http://creativecommons.org/licenses/by-nc-sa/3.0/deed.en

Bitte beachten sie die Lizenz zur Verwertung und Weitergabe der Daten:
http://creativecommons.org/licenses/by-nc-sa/3.0/deed.de

zurück zur Übersicht der Archivdaten (Monats und Tagesdaten)

Cookies helfen bei der Bereitstellung von Inhalten. Durch die Nutzung dieser Seiten erklärst du dich damit einverstanden, dass Cookies auf deinem Rechner gespeichert werden. Weitere Information